Time,TemperatureF,DewpointF,PressureIn,WindDirection,WindDirectionDegrees,WindSpeedMPH,WindSpeedGustMPH,Humidity,HourlyPrecipIn,Conditions,Clouds,dailyrainin,SoftwareType,DateUTC
2013-01-28 07:00:00,39.2,26.1,29.15,NW,315,0.0,0.0,59,-99.99,,,-99.99,WSDL version 420,2013-01-28 12:00:00,
2013-01-28 07:02:00,39.2,25.9,29.15,NW,315,0.0,0.0,58,-99.99,,,-99.99,WSDL version 420,2013-01-28 12:02:00,
2013-01-28 07:04:00,39.2,26.0,29.15,North,-999,-999.0,-999.0,59,0.00,,,0.00,WSDL version 420,2013-01-28 12:04:00,
2013-01-28 07:06:00,39.3,26.1,29.15,North,-999,-999.0,-999.0,59,-99.99,,,-99.99,WSDL version 420,2013-01-28 12:06:00,
2013-01-28 07:08:00,39.3,26.2,29.15,South,180,0.0,0.0,59,0.00,,,0.00,WSDL version 420,2013-01-28 12:08:00,
2013-01-28 07:12:00,39.4,26.3,29.15,South,180,0.0,0.0,60,-99.99,,,-99.99,WSDL version 420,2013-01-28 12:12:00,
2013-01-28 07:14:00,39.4,26.5,29.15,South,180,0.0,0.0,60,-99.99,,,-99.99,WSDL version 420,2013-01-28 12:14:00,
2013-01-28 07:16:00,39.4,26.7,29.15,South,180,0.0,0.0,60,-99.99,,,-99.99,WSDL version 420,2013-01-28 12:16:00,
2013-01-28 07:18:00,39.4,26.7,29.15,South,180,0.0,0.0,60,-99.99,,,-99.99,WSDL version 420,2013-01-28 12:18:00,
2013-01-28 07:20:00,39.4,26.7,29.15,South,180,0.0,0.0,60,-99.99,,,-99.99,WSDL version 420,2013-01-28 12:20:00,
2013-01-28 07:26:00,39.4,26.7,29.18,West,270,0.0,0.0,60,-99.99,,,-99.99,WSDL version 420,2013-01-28 12:26:00,
2013-01-28 07:32:00,39.4,26.7,29.18,West,270,0.0,0.0,60,0.00,,,0.00,WSDL version 420,2013-01-28 12:32:00,
2013-01-28 07:34:00,39.4,26.7,29.18,West,270,0.0,0.0,60,-99.99,,,-99.99,WSDL version 420,2013-01-28 12:34:00,
2013-01-28 07:38:00,39.6,26.6,29.18,West,270,0.0,0.0,59,-99.99,,,-99.99,WSDL version 420,2013-01-28 12:38:00,
2013-01-28 07:42:00,39.6,26.6,29.15,West,270,0.0,0.0,60,-99.99,,,-99.99,WSDL version 420,2013-01-28 12:42:00,
2013-01-28 07:44:00,39.6,26.7,29.15,West,270,0.0,0.0,59,-99.99,,,-99.99,WSDL version 420,2013-01-28 12:44:00,
2013-01-28 07:48:00,39.7,26.6,29.15,North,-999,-999.0,-999.0,59,-99.99,,,-99.99,WSDL version 420,2013-01-28 12:48:00,
2013-01-28 07:50:00,39.7,26.4,29.15,West,270,0.0,0.0,58,-99.99,,,-99.99,WSDL version 420,2013-01-28 12:50:00,
2013-01-28 07:52:00,39.7,26.3,29.15,North,0,0.0,0.0,58,-99.99,,,-99.99,WSDL version 420,2013-01-28 12:52:00,
2013-01-28 07:54:00,39.7,26.3,29.15,West,270,0.0,0.0,59,-99.99,,,-99.99,WSDL version 420,2013-01-28 12:54:00,
2013-01-28 07:56:00,39.7,26.5,29.18,West,270,0.0,0.0,59,-99.99,,,-99.99,WSDL version 420,2013-01-28 12:56:00,
2013-01-28 07:58:00,39.7,26.6,29.18,West,270,0.0,0.0,59,-99.99,,,-99.99,WSDL version 420,2013-01-28 12:58:00,
2013-01-28 08:02:00,39.7,26.4,29.18,West,270,0.0,0.0,58,-99.99,,,-99.99,WSDL version 420,2013-01-28 13:02:00,
2013-01-28 08:09:00,39.9,26.3,29.18,West,270,0.0,0.0,58,-99.99,,,-99.99,WSDL version 420,2013-01-28 13:09:00,
2013-01-28 08:15:00,39.9,26.4,29.15,West,270,0.0,0.0,58,-99.99,,,-99.99,WSDL version 420,2013-01-28 13:15:00,
2013-01-28 08:17:00,39.9,26.2,29.15,West,270,0.0,0.0,57,-99.99,,,-99.99,WSDL version 420,2013-01-28 13:17:00,
2013-01-28 08:23:00,40.2,26.6,29.15,West,270,0.0,0.0,58,-99.99,,,-99.99,WSDL version 420,2013-01-28 13:23:00,
2013-01-28 08:25:00,40.2,26.7,29.15,West,270,0.0,0.0,58,-99.99,,,-99.99,WSDL version 420,2013-01-28 13:25:00,
2013-01-28 08:29:00,40.3,26.7,29.15,West,270,0.0,0.0,58,-99.99,,,-99.99,WSDL version 420,2013-01-28 13:29:00,
2013-01-28 08:31:00,40.3,26.7,29.15,NW,315,0.0,0.0,58,-99.99,,,-99.99,WSDL version 420,2013-01-28 13:31:00,
2013-01-28 08:35:00,40.3,26.5,29.15,North,349,1.2,2.5,57,-99.99,,,-99.99,WSDL version 420,2013-01-28 13:35:00,
2013-01-28 08:37:00,40.3,26.3,29.15,North,360,1.6,2.5,57,-99.99,,,-99.99,WSDL version 420,2013-01-28 13:37:00,
2013-01-28 08:41:00,40.3,26.3,29.15,North,360,0.0,2.5,57,-99.99,,,-99.99,WSDL version 420,2013-01-28 13:41:00,
2013-01-28 08:47:00,40.5,26.4,29.15,South,180,0.0,1.1,57,0.00,,,0.00,WSDL version 420,2013-01-28 13:47:00,
2013-01-28 08:51:00,40.5,26.5,29.15,South,180,0.0,0.0,57,0.00,,,0.00,WSDL version 420,2013-01-28 13:51:00,
2013-01-28 08:53:00,40.6,26.6,29.15,South,180,0.0,0.0,57,0.00,,,0.00,WSDL version 420,2013-01-28 13:53:00,
2013-01-28 08:57:00,40.6,26.6,29.15,NW,315,0.0,0.0,57,0.00,,,0.00,WSDL version 420,2013-01-28 13:57:00,
2013-01-28 09:01:00,40.7,26.6,29.15,SSE,158,0.0,0.0,57,0.00,,,0.00,WSDL version 420,2013-01-28 14:01:00,
2013-01-28 09:03:00,40.7,26.7,29.15,South,180,0.0,0.0,57,0.00,,,0.00,WSDL version 420,2013-01-28 14:03:00,
2013-01-28 09:05:00,40.8,26.8,29.15,South,180,0.0,0.0,57,0.00,,,0.00,WSDL version 420,2013-01-28 14:05:00,
2013-01-28 09:07:00,40.8,26.6,29.15,South,191,0.0,0.0,56,0.00,,,0.00,WSDL version 420,2013-01-28 14:07:00,
2013-01-28 09:13:00,40.6,26.2,29.18,WNW,293,0.0,0.0,56,0.00,,,0.00,WSDL version 420,2013-01-28 14:13:00,
2013-01-28 09:15:00,40.6,26.2,29.18,WNW,293,0.0,0.0,56,0.00,,,0.00,WSDL version 420,2013-01-28 14:15:00,
2013-01-28 09:19:00,40.7,26.3,29.18,WNW,293,0.0,0.0,56,0.00,,,0.00,WSDL version 420,2013-01-28 14:19:00,
2013-01-28 09:21:00,40.8,26.3,29.18,WNW,293,0.0,0.0,56,0.00,,,0.00,WSDL version 420,2013-01-28 14:21:00,
2013-01-28 09:23:00,40.7,26.3,29.18,WNW,293,0.0,0.0,56,0.00,,,0.00,WSDL version 420,2013-01-28 14:23:00,
2013-01-28 09:25:00,40.7,26.2,29.15,WNW,293,0.0,0.0,56,0.00,,,0.00,WSDL version 420,2013-01-28 14:25:00,
2013-01-28 09:27:00,40.7,26.3,29.15,WNW,293,0.0,0.0,56,0.00,,,0.00,WSDL version 420,2013-01-28 14:27:00,
2013-01-28 09:31:00,40.8,26.3,29.15,NW,315,0.0,0.0,56,0.00,,,0.00,WSDL version 420,2013-01-28 14:31:00,
2013-01-28 09:35:00,41.0,26.5,29.15,NNW,338,0.0,0.0,56,0.00,,,0.00,WSDL version 420,2013-01-28 14:35:00,
2013-01-28 09:39:00,41.1,26.4,29.15,North,360,0.0,0.0,55,0.00,,,0.00,WSDL version 420,2013-01-28 14:39:00,
2013-01-28 09:45:00,41.4,26.9,29.15,North,360,0.0,0.0,56,0.00,,,0.00,WSDL version 420,2013-01-28 14:45:00,
2013-01-28 09:47:00,41.5,27.0,29.15,NNW,343,0.0,0.0,56,0.00,,,0.00,WSDL version 420,2013-01-28 14:47:00,
2013-01-28 09:49:00,41.5,26.8,29.15,NNW,338,0.0,0.0,55,0.00,,,0.00,WSDL version 420,2013-01-28 14:49:00,
2013-01-28 09:55:00,41.7,26.7,29.15,WSW,242,0.0,0.0,55,0.00,,,0.00,WSDL version 420,2013-01-28 14:55:00,
2013-01-28 09:57:00,41.8,26.8,29.15,SSW,195,0.0,1.1,55,0.00,,,0.00,WSDL version 420,2013-01-28 14:57:00,
2013-01-28 09:59:00,41.9,26.9,29.15,South,191,0.4,1.1,55,0.00,,,0.00,WSDL version 420,2013-01-28 14:59:00,
2013-01-28 10:01:00,42.0,27.0,29.15,SW,225,0.0,1.1,55,0.00,,,0.00,WSDL version 420,2013-01-28 15:01:00,
2013-01-28 10:07:00,42.1,27.0,29.15,NNW,338,0.0,0.0,54,0.00,,,0.00,WSDL version 420,2013-01-28 15:07:00,
2013-01-28 10:09:00,42.1,26.9,29.15,North,-999,-999.0,-999.0,54,0.00,,,0.00,WSDL version 420,2013-01-28 15:09:00,
2013-01-28 10:15:00,42.1,26.6,29.15,North,-999,-999.0,-999.0,54,0.00,,,0.00,WSDL version 420,2013-01-28 15:15:00,
2013-01-28 10:17:00,42.1,26.6,29.15,North,360,0.0,1.3,54,0.00,,,0.00,WSDL version 420,2013-01-28 15:17:00,
2013-01-28 10:19:00,42.0,26.6,29.15,North,360,0.4,1.3,54,0.00,,,0.00,WSDL version 420,2013-01-28 15:19:00,
2013-01-28 10:21:00,42.0,26.4,29.15,North,360,0.0,1.3,53,0.00,,,0.00,WSDL version 420,2013-01-28 15:21:00,
2013-01-28 10:23:00,41.9,26.1,29.15,North,360,0.0,1.3,53,0.00,,,0.00,WSDL version 420,2013-01-28 15:23:00,
2013-01-28 10:25:00,41.9,26.1,29.15,North,360,0.0,1.3,54,0.00,,,0.00,WSDL version 420,2013-01-28 15:25:00,
2013-01-28 10:27:00,41.9,26.3,29.15,North,360,0.0,0.0,54,0.00,,,0.00,WSDL version 420,2013-01-28 15:27:00,
2013-01-28 10:29:00,41.9,26.5,29.15,North,360,0.0,0.0,54,0.00,,,0.00,WSDL version 420,2013-01-28 15:29:00,
2013-01-28 10:31:00,42.0,26.6,29.15,North,360,0.0,0.0,54,0.00,,,0.00,WSDL version 420,2013-01-28 15:31:00,
2013-01-28 10:33:00,42.1,26.6,29.15,North,360,0.0,0.0,54,0.00,,,0.00,WSDL version 420,2013-01-28 15:33:00,
2013-01-28 10:35:00,42.1,26.6,29.15,North,360,0.0,0.0,54,0.00,,,0.00,WSDL version 420,2013-01-28 15:35:00,
2013-01-28 10:39:00,42.2,26.8,29.15,North,360,0.0,0.0,54,0.00,,,0.00,WSDL version 420,2013-01-28 15:39:00,
2013-01-28 10:41:00,42.2,26.9,29.18,North,360,0.0,0.0,54,0.00,,,0.00,WSDL version 420,2013-01-28 15:41:00,
2013-01-28 10:45:00,42.3,26.8,29.18,North,360,0.0,0.0,54,0.00,,,0.00,WSDL version 420,2013-01-28 15:45:00,
2013-01-28 10:47:00,42.3,26.8,29.18,ENE,60,0.0,0.0,54,0.00,,,0.00,WSDL version 420,2013-01-28 15:47:00,
2013-01-28 10:49:00,42.3,26.8,29.18,ENE,68,0.0,0.0,54,0.00,,,0.00,WSDL version 420,2013-01-28 15:49:00,
2013-01-28 10:53:00,42.4,26.9,29.18,South,180,0.0,0.0,54,0.00,,,0.00,WSDL version 420,2013-01-28 15:53:00,
2013-01-28 10:59:00,42.6,27.1,29.18,NW,315,0.0,0.0,54,0.00,,,0.00,WSDL version 420,2013-01-28 15:59:00,
2013-01-28 11:01:00,42.7,27.2,29.18,NNW,338,0.0,0.0,54,0.00,,,0.00,WSDL version 420,2013-01-28 16:01:00,
2013-01-28 11:03:00,42.8,27.3,29.18,NNE,23,0.0,0.0,54,0.00,,,0.00,WSDL version 420,2013-01-28 16:03:00,
2013-01-28 11:07:00,43.0,27.2,29.18,North,360,0.0,0.0,53,0.00,,,0.00,WSDL version 420,2013-01-28 16:07:00,
2013-01-28 11:09:00,43.1,27.1,29.18,WNW,293,0.0,0.0,53,0.00,,,0.00,WSDL version 420,2013-01-28 16:09:00,
2013-01-28 11:11:00,43.2,27.3,29.15,NW,315,0.0,0.0,53,0.00,,,0.00,WSDL version 420,2013-01-28 16:11:00,
2013-01-28 11:13:00,43.3,27.4,29.15,NW,315,0.0,0.0,53,0.00,,,0.00,WSDL version 420,2013-01-28 16:13:00,
2013-01-28 11:15:00,43.5,27.5,29.15,ENE,68,0.0,0.0,53,0.00,,,0.00,WSDL version 420,2013-01-28 16:15:00,
2013-01-28 11:19:00,43.7,27.6,29.15,North,360,0.0,1.6,52,0.00,,,0.00,WSDL version 420,2013-01-28 16:19:00,
2013-01-28 11:21:00,43.7,27.5,29.15,North,360,0.0,1.6,52,0.00,,,0.00,WSDL version 420,2013-01-28 16:21:00,
2013-01-28 11:23:00,43.8,27.4,29.15,North,360,0.0,1.6,53,0.00,,,0.00,WSDL version 420,2013-01-28 16:23:00,
2013-01-28 11:27:00,44.2,28.0,29.15,SW,225,0.0,0.0,52,0.00,,,0.00,WSDL version 420,2013-01-28 16:27:00,
2013-01-28 11:29:00,44.3,28.0,29.15,NW,315,0.0,0.0,52,0.00,,,0.00,WSDL version 420,2013-01-28 16:29:00,
2013-01-28 11:31:00,44.4,28.0,29.15,NW,315,0.0,0.0,52,0.00,,,0.00,WSDL version 420,2013-01-28 16:31:00,
2013-01-28 11:37:00,44.7,28.1,29.15,NW,315,0.0,0.0,52,0.00,,,0.00,WSDL version 420,2013-01-28 16:37:00,
2013-01-28 11:41:00,44.8,27.9,29.15,NW,315,0.0,0.0,51,0.00,,,0.00,WSDL version 420,2013-01-28 16:41:00,
2013-01-28 11:43:00,44.8,27.8,29.15,NW,315,0.0,0.0,51,0.00,,,0.00,WSDL version 420,2013-01-28 16:43:00,
2013-01-28 11:47:00,45.0,28.0,29.15,North,-999,-999.0,-999.0,52,0.00,,,0.00,WSDL version 420,2013-01-28 16:47:00,
2013-01-28 11:49:00,45.1,28.2,29.15,NNW,338,0.0,0.0,51,0.00,,,0.00,WSDL version 420,2013-01-28 16:49:00,
2013-01-28 11:51:00,45.3,28.3,29.15,North,-999,-999.0,-999.0,51,0.00,,,0.00,WSDL version 420,2013-01-28 16:51:00,
2013-01-28 11:55:00,45.3,28.3,29.15,NW,315,0.0,0.0,51,0.00,,,0.00,WSDL version 420,2013-01-28 16:55:00,
2013-01-28 11:57:00,45.4,28.3,29.15,NE,45,0.4,1.6,51,0.00,,,0.00,WSDL version 420,2013-01-28 16:57:00,
2013-01-28 12:01:00,45.5,28.5,29.15,North,360,0.0,1.6,51,0.00,,,0.00,WSDL version 420,2013-01-28 17:01:00,
2013-01-28 12:03:00,45.6,28.5,29.15,North,360,0.0,1.6,51,0.00,,,0.00,WSDL version 420,2013-01-28 17:03:00,
2013-01-28 12:05:00,45.8,28.7,29.15,NE,45,0.0,1.6,51,0.00,,,0.00,WSDL version 420,2013-01-28 17:05:00,
2013-01-28 12:07:00,45.9,28.8,29.15,NNE,30,0.0,0.0,51,0.00,,,0.00,WSDL version 420,2013-01-28 17:07:00,
2013-01-28 12:13:00,46.0,28.5,29.15,North,360,0.0,0.0,50,0.00,,,0.00,WSDL version 420,2013-01-28 17:13:00,
2013-01-28 12:17:00,46.2,28.6,29.15,West,278,0.0,0.0,50,0.00,,,0.00,WSDL version 420,2013-01-28 17:17:00,
2013-01-28 12:19:00,46.3,28.7,29.15,SSW,203,0.0,1.1,50,0.00,,,0.00,WSDL version 420,2013-01-28 17:19:00,
2013-01-28 12:21:00,46.4,28.8,29.15,SSW,210,0.9,1.1,50,0.00,,,0.00,WSDL version 420,2013-01-28 17:21:00,
2013-01-28 12:27:00,46.8,29.2,29.12,NW,319,0.0,1.1,50,0.00,,,0.00,WSDL version 420,2013-01-28 17:27:00,
2013-01-28 12:29:00,46.9,29.1,29.12,NW,311,0.0,0.9,49,0.00,,,0.00,WSDL version 420,2013-01-28 17:29:00,
2013-01-28 12:31:00,46.9,28.9,29.12,NNW,345,0.0,0.0,49,0.00,,,0.00,WSDL version 420,2013-01-28 17:31:00,
2013-01-28 12:35:00,47.1,28.9,29.12,WSW,252,0.4,2.0,49,0.00,,,0.00,WSDL version 420,2013-01-28 17:35:00,
2013-01-28 12:41:00,47.3,29.1,29.12,WNW,293,0.6,2.0,49,0.00,,,0.00,WSDL version 420,2013-01-28 17:41:00,
2013-01-28 12:43:00,47.4,29.3,29.12,NW,321,0.7,3.1,49,0.00,,,0.00,WSDL version 420,2013-01-28 17:43:00,
2013-01-28 12:47:00,47.8,29.6,29.12,NNW,330,1.3,3.1,49,0.00,,,0.00,WSDL version 420,2013-01-28 17:47:00,
2013-01-28 12:49:00,48.0,29.8,29.12,NNW,338,0.0,3.1,49,0.00,,,0.00,WSDL version 420,2013-01-28 17:49:00,
2013-01-28 12:51:00,48.1,29.9,29.12,NNW,333,0.0,3.1,49,0.00,,,0.00,WSDL version 420,2013-01-28 17:51:00,
2013-01-28 12:53:00,48.3,30.1,29.12,NNW,341,0.0,2.5,49,0.00,,,0.00,WSDL version 420,2013-01-28 17:53:00,
2013-01-28 12:57:00,48.8,30.5,29.09,WNW,300,1.5,1.6,49,0.00,,,0.00,WSDL version 420,2013-01-28 17:57:00,
2013-01-28 12:59:00,49.1,30.8,29.09,WSW,240,0.4,1.6,49,0.00,,,0.00,WSDL version 420,2013-01-28 17:59:00,
2013-01-28 13:03:00,49.6,31.1,29.09,North,360,0.4,1.6,49,0.00,,,0.00,WSDL version 420,2013-01-28 18:03:00,
2013-01-28 13:05:00,49.7,31.2,29.09,SW,236,0.0,1.6,49,0.00,,,0.00,WSDL version 420,2013-01-28 18:05:00,
2013-01-28 13:07:00,49.8,31.4,29.09,NW,315,0.0,1.6,49,0.00,,,0.00,WSDL version 420,2013-01-28 18:07:00,
2013-01-28 13:11:00,50.0,31.5,29.09,North,353,0.0,0.0,48,0.00,,,0.00,WSDL version 420,2013-01-28 18:11:00,
2013-01-28 13:17:00,50.5,32.1,29.09,North,360,2.1,2.9,49,0.00,,,0.00,WSDL version 420,2013-01-28 18:17:00,
2013-01-28 13:19:00,50.7,32.3,29.09,NE,38,2.6,2.9,49,0.00,,,0.00,WSDL version 420,2013-01-28 18:19:00,
2013-01-28 13:23:00,51.5,33.1,29.09,NW,315,1.6,2.9,49,0.00,,,0.00,WSDL version 420,2013-01-28 18:23:00,
2013-01-28 13:25:00,51.7,33.1,29.09,North,360,2.7,2.9,48,0.00,,,0.00,WSDL version 420,2013-01-28 18:25:00,
2013-01-28 13:27:00,52.0,33.0,29.09,North,360,0.9,2.9,48,0.00,,,0.00,WSDL version 420,2013-01-28 18:27:00,
2013-01-28 13:31:00,52.7,33.6,29.09,NW,315,1.0,2.9,48,0.00,,,0.00,WSDL version 420,2013-01-28 18:31:00,
2013-01-28 13:33:00,53.0,33.9,29.09,North,360,2.3,2.9,48,0.00,,,0.00,WSDL version 420,2013-01-28 18:33:00,
2013-01-28 13:35:00,53.3,34.1,29.09,North,0,0.0,2.9,48,0.00,,,0.00,WSDL version 420,2013-01-28 18:35:00,
2013-01-28 13:39:00,54.1,35.1,29.09,NNW,338,0.0,2.9,49,0.00,,,0.00,WSDL version 420,2013-01-28 18:39:00,
2013-01-28 13:43:00,54.9,36.1,29.06,South,191,0.9,3.1,49,0.00,,,0.00,WSDL version 420,2013-01-28 18:43:00,
2013-01-28 13:45:00,55.1,36.3,29.06,North,360,0.7,3.1,49,0.00,,,0.00,WSDL version 420,2013-01-28 18:45:00,
2013-01-28 13:51:00,55.9,37.1,29.06,North,-999,-999.0,-999.0,49,0.00,,,0.00,WSDL version 420,2013-01-28 18:51:00,
2013-01-28 13:53:00,56.0,37.2,29.06,North,-999,-999.0,-999.0,49,0.00,,,0.00,WSDL version 420,2013-01-28 18:53:00,
2013-01-28 13:55:00,56.1,37.1,29.03,NE,45,2.7,0.0,48,0.00,,,0.00,WSDL version 420,2013-01-28 18:55:00,
2013-01-28 13:57:00,56.2,37.0,29.03,NE,45,0.0,0.0,49,0.00,,,0.00,WSDL version 420,2013-01-28 18:57:00,
2013-01-28 14:03:00,56.9,37.9,29.03,North,6,1.0,2.2,48,0.00,,,0.00,WSDL version 420,2013-01-28 19:03:00,
2013-01-28 14:07:00,57.3,37.8,29.03,NNE,18,1.8,2.5,48,0.00,,,0.00,WSDL version 420,2013-01-28 19:07:00,
2013-01-28 14:09:00,57.5,38.0,29.03,ENE,73,1.3,2.5,48,0.00,,,0.00,WSDL version 420,2013-01-28 19:09:00,
2013-01-28 14:11:00,57.7,38.2,29.03,NE,45,1.1,2.5,48,0.00,,,0.00,WSDL version 420,2013-01-28 19:11:00,
2013-01-28 14:13:00,57.9,38.4,29.03,SSW,203,0.9,2.5,48,0.00,,,0.00,WSDL version 420,2013-01-28 19:13:00,
2013-01-28 14:19:00,58.1,38.5,29.03,North,0,0.0,3.6,48,0.00,,,0.00,WSDL version 420,2013-01-28 19:19:00,
2013-01-28 14:21:00,58.1,38.8,29.03,North,-999,-999.0,-999.0,50,0.00,,,0.00,WSDL version 420,2013-01-28 19:21:00,
2013-01-28 14:25:00,58.5,40.3,29.03,SE,135,2.7,4.7,51,0.00,,,0.00,WSDL version 420,2013-01-28 19:25:00,
2013-01-28 14:27:00,58.7,40.6,29.03,North,0,0.0,4.7,51,0.00,,,0.00,WSDL version 420,2013-01-28 19:27:00,
2013-01-28 14:29:00,59.0,40.9,29.03,SSW,203,2.0,4.7,51,0.00,,,0.00,WSDL version 420,2013-01-28 19:29:00,
2013-01-28 14:33:00,59.1,40.6,29.03,SW,236,3.2,4.7,50,0.00,,,0.00,WSDL version 420,2013-01-28 19:33:00,
2013-01-28 14:39:00,59.2,40.6,29.03,SW,225,1.6,4.7,50,0.00,,,0.00,WSDL version 420,2013-01-28 19:39:00,
2013-01-28 14:43:00,59.2,40.6,29.00,SSW,208,0.0,3.6,50,0.00,,,0.00,WSDL version 420,2013-01-28 19:43:00,
2013-01-28 14:45:00,59.3,40.7,29.00,SSW,203,1.1,4.3,50,0.00,,,0.00,WSDL version 420,2013-01-28 19:45:00,
2013-01-28 14:49:00,59.5,40.9,29.00,SW,218,2.8,4.3,50,0.00,,,0.00,WSDL version 420,2013-01-28 19:49:00,
2013-01-28 14:51:00,59.5,40.9,29.00,SW,225,0.7,4.3,50,0.00,,,0.00,WSDL version 420,2013-01-28 19:51:00,
2013-01-28 14:55:00,59.4,40.4,29.03,SSW,203,2.7,6.5,49,0.00,,,0.00,WSDL version 420,2013-01-28 19:55:00,
2013-01-28 15:01:00,59.2,40.1,29.03,South,180,4.5,6.5,49,0.00,,,0.00,WSDL version 420,2013-01-28 20:01:00,
2013-01-28 15:07:00,59.3,40.2,29.03,West,270,1.9,3.4,49,0.00,,,0.00,WSDL version 420,2013-01-28 20:07:00,
2013-01-28 15:11:00,59.4,40.2,29.03,North,-999,-999.0,-999.0,49,0.00,,,0.00,WSDL version 420,2013-01-28 20:11:00,
2013-01-28 15:17:00,59.8,40.6,29.03,North,0,0.0,5.8,49,0.00,,,0.00,WSDL version 420,2013-01-28 20:17:00,
2013-01-28 15:21:00,59.8,40.5,29.03,WSW,248,2.0,5.8,48,0.00,,,0.00,WSDL version 420,2013-01-28 20:21:00,
2013-01-28 15:23:00,59.8,40.3,29.03,West,270,0.9,5.8,48,0.00,,,0.00,WSDL version 420,2013-01-28 20:23:00,
2013-01-28 15:29:00,59.8,40.1,29.03,SSW,197,1.6,6.0,48,0.00,,,0.00,WSDL version 420,2013-01-28 20:29:00,
2013-01-28 15:33:00,60.0,40.3,29.03,SSE,158,1.6,6.0,48,0.00,,,0.00,WSDL version 420,2013-01-28 20:33:00,
2013-01-28 15:35:00,60.1,40.0,29.03,SW,214,1.7,6.0,47,0.00,,,0.00,WSDL version 420,2013-01-28 20:35:00,
2013-01-28 15:41:00,59.8,39.4,29.06,WSW,248,3.1,6.0,46,0.00,,,0.00,WSDL version 420,2013-01-28 20:41:00,
2013-01-28 15:47:00,59.2,38.6,29.06,SSW,203,1.6,6.0,47,0.00,,,0.00,WSDL version 420,2013-01-28 20:47:00,
2013-01-28 15:49:00,59.2,38.8,29.06,WNW,293,1.3,4.9,47,0.00,,,0.00,WSDL version 420,2013-01-28 20:49:00,
2013-01-28 15:51:00,59.2,39.0,29.06,North,-999,-999.0,-999.0,47,0.00,,,0.00,WSDL version 420,2013-01-28 20:51:00,
2013-01-28 15:53:00,59.2,39.0,29.06,SSW,203,2.2,3.1,47,0.00,,,0.00,WSDL version 420,2013-01-28 20:53:00,
2013-01-28 15:55:00,59.0,38.8,29.06,SW,236,1.9,3.1,47,0.00,,,0.00,WSDL version 420,2013-01-28 20:55:00,
2013-01-28 15:57:00,58.9,38.7,29.06,SW,214,2.0,3.1,47,0.00,,,0.00,WSDL version 420,2013-01-28 20:57:00,
2013-01-28 16:01:00,58.8,39.0,29.06,SSW,203,2.5,4.0,48,0.00,,,0.00,WSDL version 420,2013-01-28 21:01:00,
2013-01-28 16:03:00,58.8,39.2,29.06,North,-999,-999.0,-999.0,48,0.00,,,0.00,WSDL version 420,2013-01-28 21:03:00,
2013-01-28 16:09:00,58.8,39.2,29.06,North,-999,-999.0,-999.0,48,0.00,,,0.00,WSDL version 420,2013-01-28 21:09:00,
2013-01-28 16:11:00,58.8,39.2,29.03,South,180,3.4,3.4,48,0.00,,,0.00,WSDL version 420,2013-01-28 21:11:00,
2013-01-28 16:15:00,58.7,39.1,29.03,South,180,2.5,3.8,48,0.00,,,0.00,WSDL version 420,2013-01-28 21:15:00,
2013-01-28 16:21:00,59.0,39.6,29.03,South,191,3.6,3.8,48,0.00,,,0.00,WSDL version 420,2013-01-28 21:21:00,
2013-01-28 16:27:00,59.3,39.7,29.03,SSW,195,3.3,4.9,48,0.00,,,0.00,WSDL version 420,2013-01-28 21:27:00,
2013-01-28 16:29:00,59.3,39.7,29.03,South,180,2.5,4.9,48,0.00,,,0.00,WSDL version 420,2013-01-28 21:29:00,
2013-01-28 16:31:00,59.3,39.6,29.03,South,191,4.3,4.9,48,0.00,,,0.00,WSDL version 420,2013-01-28 21:31:00,
2013-01-28 16:33:00,59.1,39.5,29.03,SSW,197,3.0,4.9,48,0.00,,,0.00,WSDL version 420,2013-01-28 21:33:00,
2013-01-28 16:39:00,58.9,39.2,29.03,SSW,203,3.6,5.4,48,0.00,,,0.00,WSDL version 420,2013-01-28 21:39:00,
2013-01-28 16:41:00,58.7,39.1,29.03,South,180,3.1,5.4,48,0.00,,,0.00,WSDL version 420,2013-01-28 21:41:00,
2013-01-28 16:45:00,58.6,39.4,29.03,South,188,2.9,5.4,49,0.00,,,0.00,WSDL version 420,2013-01-28 21:45:00,
2013-01-28 16:48:00,58.6,39.6,29.03,South,191,2.9,4.0,49,0.00,,,0.00,WSDL version 420,2013-01-28 21:48:00,
2013-01-28 16:54:00,58.4,38.8,29.03,WNW,293,0.8,3.1,48,0.00,,,0.00,WSDL version 420,2013-01-28 21:54:00,
2013-01-28 16:56:00,58.2,38.6,29.03,WSW,248,0.0,3.1,48,0.00,,,0.00,WSDL version 420,2013-01-28 21:56:00,
2013-01-28 17:00:00,57.8,38.4,29.03,West,259,1.5,3.1,49,0.00,,,0.00,WSDL version 420,2013-01-28 22:00:00,
2013-01-28 17:02:00,57.7,38.2,29.03,SSW,203,1.3,3.1,48,0.00,,,0.00,WSDL version 420,2013-01-28 22:02:00,
2013-01-28 17:08:00,57.2,38.2,29.03,SSW,203,2.6,5.8,49,0.00,,,0.00,WSDL version 420,2013-01-28 22:08:00,
2013-01-28 17:10:00,57.1,38.1,29.03,South,180,2.8,5.8,49,0.00,,,0.00,WSDL version 420,2013-01-28 22:10:00,
2013-01-28 17:12:00,56.9,38.0,29.03,SSW,208,2.9,6.5,49,0.00,,,0.00,WSDL version 420,2013-01-28 22:12:00,
2013-01-28 17:16:00,56.7,38.5,29.03,South,180,3.1,6.5,51,0.00,,,0.00,WSDL version 420,2013-01-28 22:16:00,
2013-01-28 17:22:00,56.5,38.6,29.03,SSW,203,2.0,3.6,51,0.00,,,0.00,WSDL version 420,2013-01-28 22:22:00,
2013-01-28 17:24:00,56.3,38.5,29.03,SSW,199,3.9,6.0,52,0.00,,,0.00,WSDL version 420,2013-01-28 22:24:00,
2013-01-28 17:30:00,55.9,38.6,29.00,North,-999,-999.0,-999.0,53,0.00,,,0.00,WSDL version 420,2013-01-28 22:30:00,
2013-01-28 17:36:00,55.5,38.2,29.00,SSE,158,3.1,5.4,52,0.00,,,0.00,WSDL version 420,2013-01-28 22:36:00,
2013-01-28 17:38:00,55.3,38.2,29.00,South,180,2.8,5.6,53,0.00,,,0.00,WSDL version 420,2013-01-28 22:38:00,
2013-01-28 17:40:00,55.2,38.3,29.00,North,-999,-999.0,-999.0,54,0.00,,,0.00,WSDL version 420,2013-01-28 22:40:00,
2013-01-28 18:37:00,51.5,37.3,29.00,NW,315,0.0,2.5,58,0.00,,,0.00,WSDL version 420,2013-01-28 23:37:00,
2013-01-28 18:39:00,51.5,37.2,29.00,NNW,338,0.0,0.0,58,0.00,,,0.00,WSDL version 420,2013-01-28 23:39:00,
2013-01-28 18:43:00,51.4,37.2,29.00,NW,315,0.0,0.0,58,0.00,,,0.00,WSDL version 420,2013-01-28 23:43:00,
2013-01-28 18:45:00,51.3,37.1,29.00,NW,315,0.0,0.0,58,0.00,,,0.00,WSDL version 420,2013-01-28 23:45:00,
2013-01-28 18:49:00,51.1,37.2,29.00,North,349,0.0,0.0,59,0.00,,,0.00,WSDL version 420,2013-01-28 23:49:00,
2013-01-28 18:53:00,50.9,37.1,29.00,West,263,0.0,0.0,59,0.00,,,0.00,WSDL version 420,2013-01-28 23:53:00,
2013-01-28 18:55:00,50.7,36.9,29.00,WSW,248,0.0,0.0,59,0.00,,,0.00,WSDL version 420,2013-01-28 23:55:00,
2013-01-28 18:57:00,50.5,36.8,29.00,WNW,293,0.0,0.0,59,0.00,,,0.00,WSDL version 420,2013-01-28 23:57:00,
2013-01-28 18:59:00,50.4,36.7,29.00,NNE,18,0.0,0.0,59,0.00,,,0.00,WSDL version 420,2013-01-28 23:59:00,
2013-01-28 19:05:00,50.0,36.6,29.00,ESE,113,0.0,0.0,60,0.00,,,0.00,WSDL version 420,2013-01-29 00:05:00,
2013-01-28 19:09:00,49.8,36.8,29.00,NNE,32,0.0,2.5,61,0.00,,,0.00,WSDL version 420,2013-01-29 00:09:00,
2013-01-28 19:11:00,49.7,36.8,29.00,SW,225,0.9,2.5,61,0.00,,,0.00,WSDL version 420,2013-01-29 00:11:00,
2013-01-28 19:17:00,49.4,37.0,29.00,NNE,23,0.0,2.5,62,0.00,,,0.00,WSDL version 420,2013-01-29 00:17:00,
2013-01-28 19:19:00,49.3,36.9,29.00,NE,39,0.6,2.5,62,0.00,,,0.00,WSDL version 420,2013-01-29 00:19:00,
2013-01-28 19:21:00,49.4,37.1,29.00,SSE,158,0.9,2.5,63,0.00,,,0.00,WSDL version 420,2013-01-29 00:21:00,
2013-01-28 19:23:00,49.4,37.3,29.00,NW,326,0.0,2.5,63,0.00,,,0.00,WSDL version 420,2013-01-29 00:23:00,
2013-01-28 19:27:00,49.6,37.7,29.00,NW,315,0.0,2.5,64,0.00,,,0.00,WSDL version 420,2013-01-29 00:27:00,
2013-01-28 19:29:00,49.6,38.0,29.00,NW,315,0.9,2.2,64,0.00,,,0.00,WSDL version 420,2013-01-29 00:29:00,
2013-01-28 19:31:00,49.6,37.9,29.00,North,8,0.0,2.2,64,0.00,,,0.00,WSDL version 420,2013-01-29 00:31:00,
2013-01-28 19:33:00,49.5,37.8,29.00,North,360,0.0,1.1,64,0.00,,,0.00,WSDL version 420,2013-01-29 00:33:00,
2013-01-28 19:35:00,49.3,37.5,29.00,North,360,0.0,0.0,63,0.00,,,0.00,WSDL version 420,2013-01-29 00:35:00,
2013-01-28 19:39:00,48.9,36.9,29.00,NE,45,0.0,0.0,63,0.00,,,0.00,WSDL version 420,2013-01-29 00:39:00,
2013-01-28 19:41:00,48.8,36.8,29.00,West,270,0.0,0.0,63,0.00,,,0.00,WSDL version 420,2013-01-29 00:41:00,
2013-01-28 19:43:00,48.7,36.9,29.00,North,0,0.0,0.0,64,0.00,,,0.00,WSDL version 420,2013-01-29 00:43:00,
2013-01-28 19:45:00,48.6,36.9,29.00,North,360,0.0,0.0,64,0.00,,,0.00,WSDL version 420,2013-01-29 00:45:00,
2013-01-28 19:47:00,48.6,36.9,29.00,North,360,0.0,0.0,64,0.00,,,0.00,WSDL version 420,2013-01-29 00:47:00,
2013-01-28 19:49:00,48.6,37.0,29.00,North,360,0.0,0.0,65,0.00,,,0.00,WSDL version 420,2013-01-29 00:49:00,
2013-01-28 19:55:00,48.4,36.8,29.00,South,180,0.0,0.0,64,0.00,,,0.00,WSDL version 420,2013-01-29 00:55:00,
2013-01-28 19:57:00,48.4,36.9,29.00,North,-999,-999.0,-999.0,65,0.00,,,0.00,WSDL version 420,2013-01-29 00:57:00,
2013-01-28 19:59:00,48.4,37.0,29.00,North,-999,-999.0,-999.0,65,0.00,,,0.00,WSDL version 420,2013-01-29 00:59:00,
2013-01-28 20:03:00,48.2,37.0,29.00,NE,45,0.0,0.0,65,0.00,,,0.00,WSDL version 420,2013-01-29 01:03:00,
2013-01-28 20:09:00,47.7,36.5,29.00,North,360,0.0,0.0,65,0.00,,,0.00,WSDL version 420,2013-01-29 01:09:00,
2013-01-28 20:13:00,47.6,36.7,29.00,North,360,0.0,0.0,66,0.00,,,0.00,WSDL version 420,2013-01-29 01:13:00,
2013-01-28 20:15:00,47.5,36.7,29.00,North,360,0.0,0.0,66,0.00,,,0.00,WSDL version 420,2013-01-29 01:15:00,
2013-01-28 20:17:00,47.5,36.7,29.00,North,360,0.0,0.0,66,0.00,,,0.00,WSDL version 420,2013-01-29 01:17:00,
2013-01-28 20:19:00,47.5,36.7,29.00,North,360,0.0,0.0,66,0.00,,,0.00,WSDL version 420,2013-01-29 01:19:00,
2013-01-28 20:25:00,47.5,36.9,29.00,SSW,203,0.0,0.0,67,0.00,,,0.00,WSDL version 420,2013-01-29 01:25:00,
2013-01-28 20:27:00,47.4,37.0,29.00,North,-999,-999.0,-999.0,67,0.00,,,0.00,WSDL version 420,2013-01-29 01:27:00,
2013-01-28 20:31:00,47.3,36.9,29.00,WNW,293,0.0,0.0,67,0.00,,,0.00,WSDL version 420,2013-01-29 01:31:00,
2013-01-28 20:35:00,47.3,36.9,29.00,North,-999,-999.0,-999.0,67,0.00,,,0.00,WSDL version 420,2013-01-29 01:35:00,
2013-01-28 20:37:00,47.3,36.9,29.00,NW,315,0.0,0.0,67,0.00,,,0.00,WSDL version 420,2013-01-29 01:37:00,
2013-01-28 20:41:00,47.3,36.9,29.00,NW,315,0.0,0.0,67,0.00,,,0.00,WSDL version 420,2013-01-29 01:41:00,
2013-01-28 20:45:00,47.3,36.9,29.00,North,0,0.0,0.0,67,0.00,,,0.00,WSDL version 420,2013-01-29 01:45:00,
2013-01-28 20:51:00,47.3,37.2,29.00,North,-999,-999.0,-999.0,68,0.00,,,0.00,WSDL version 420,2013-01-29 01:51:00,
2013-01-28 20:53:00,47.3,37.3,29.00,WSW,248,0.0,0.0,68,0.00,,,0.00,WSDL version 420,2013-01-29 01:53:00,
2013-01-28 20:55:00,47.3,37.3,29.00,North,360,0.0,0.0,68,0.00,,,0.00,WSDL version 420,2013-01-29 01:55:00,
2013-01-28 20:59:00,47.3,37.3,29.00,North,360,0.0,0.0,68,0.00,,,0.00,WSDL version 420,2013-01-29 01:59:00,
2013-01-28 21:01:00,47.3,37.3,29.00,West,259,0.0,0.0,68,0.00,,,0.00,WSDL version 420,2013-01-29 02:01:00,
2013-01-28 21:05:00,47.3,37.3,29.00,North,0,0.0,0.0,68,0.00,,,0.00,WSDL version 420,2013-01-29 02:05:00,
2013-01-28 21:11:00,47.1,37.1,29.00,NW,315,0.0,0.0,68,0.00,,,0.00,WSDL version 420,2013-01-29 02:11:00,
2013-01-28 21:13:00,47.0,37.0,29.00,NW,315,0.0,0.0,68,0.00,,,0.00,WSDL version 420,2013-01-29 02:13:00,
2013-01-28 21:15:00,46.9,36.9,29.00,SSE,158,0.0,0.0,68,0.00,,,0.00,WSDL version 420,2013-01-29 02:15:00,
2013-01-28 21:17:00,46.9,36.9,29.00,SSE,158,0.0,0.0,68,0.00,,,0.00,WSDL version 420,2013-01-29 02:17:00,
2013-01-28 21:19:00,46.9,37.0,29.00,SSE,165,0.0,0.0,68,0.00,,,0.00,WSDL version 420,2013-01-29 02:19:00,
2013-01-28 21:21:00,47.0,37.1,29.00,South,180,0.0,0.0,68,0.00,,,0.00,WSDL version 420,2013-01-29 02:21:00,
2013-01-28 21:23:00,47.0,37.0,29.00,North,356,0.0,0.0,68,0.00,,,0.00,WSDL version 420,2013-01-29 02:23:00,
2013-01-28 21:27:00,46.9,36.9,29.00,SW,219,0.0,0.0,68,0.00,,,0.00,WSDL version 420,2013-01-29 02:27:00,
2013-01-28 21:29:00,46.7,36.8,29.00,ESE,117,0.0,0.0,68,0.00,,,0.00,WSDL version 420,2013-01-29 02:29:00,
2013-01-28 21:35:00,46.7,37.1,29.00,SSE,165,1.6,2.5,69,0.00,,,0.00,WSDL version 420,2013-01-29 02:35:00,
2013-01-28 21:39:00,46.6,37.0,29.00,SE,129,0.0,2.5,69,0.00,,,0.00,WSDL version 420,2013-01-29 02:39:00,
2013-01-28 21:41:00,46.7,37.1,29.00,South,176,1.3,2.5,69,0.00,,,0.00,WSDL version 420,2013-01-29 02:41:00,
2013-01-28 21:43:00,46.8,37.1,29.00,South,180,0.0,2.5,69,0.00,,,0.00,WSDL version 420,2013-01-29 02:43:00,
2013-01-28 21:45:00,46.9,37.2,29.00,South,191,0.0,2.5,69,0.00,,,0.00,WSDL version 420,2013-01-29 02:45:00,
2013-01-28 21:49:00,47.1,37.8,29.00,SW,221,0.0,2.5,70,0.00,,,0.00,WSDL version 420,2013-01-29 02:49:00,
2013-01-28 21:51:00,47.3,38.0,29.00,SSW,203,0.0,0.0,70,0.00,,,0.00,WSDL version 420,2013-01-29 02:51:00,
2013-01-28 21:53:00,47.3,38.0,29.00,South,191,0.0,0.0,70,0.00,,,0.00,WSDL version 420,2013-01-29 02:53:00,
2013-01-28 21:57:00,47.3,38.0,29.00,SSW,203,0.0,0.0,70,0.00,,,0.00,WSDL version 420,2013-01-29 02:57:00,
2013-01-28 22:01:00,47.2,37.9,29.00,South,180,1.3,2.9,70,0.00,,,0.00,WSDL version 420,2013-01-29 03:01:00,
2013-01-28 22:03:00,47.2,38.0,29.00,South,180,1.9,2.9,70,0.00,,,0.00,WSDL version 420,2013-01-29 03:03:00,
2013-01-28 22:05:00,47.3,38.0,29.00,South,180,0.0,2.9,70,0.00,,,0.00,WSDL version 420,2013-01-29 03:05:00,
2013-01-28 22:09:00,47.2,37.7,29.00,ESE,104,0.0,2.9,69,0.00,,,0.00,WSDL version 420,2013-01-29 03:09:00,
2013-01-28 22:11:00,47.1,37.5,29.00,ENE,68,0.0,2.9,69,0.00,,,0.00,WSDL version 420,2013-01-29 03:11:00,
2013-01-28 22:15:00,46.9,37.3,29.00,North,360,0.0,0.0,69,0.00,,,0.00,WSDL version 420,2013-01-29 03:15:00,
2013-01-28 22:17:00,46.8,37.2,29.00,North,360,0.0,0.0,69,0.00,,,0.00,WSDL version 420,2013-01-29 03:17:00,
2013-01-28 22:19:00,46.7,37.1,29.00,North,360,0.0,0.0,69,0.00,,,0.00,WSDL version 420,2013-01-29 03:19:00,
2013-01-28 22:23:00,46.5,36.9,29.00,North,360,0.0,0.0,69,0.00,,,0.00,WSDL version 420,2013-01-29 03:23:00,
2013-01-28 22:25:00,46.3,36.7,29.00,North,360,0.0,0.0,69,0.00,,,0.00,WSDL version 420,2013-01-29 03:25:00,
2013-01-28 22:27:00,46.2,36.6,29.00,North,360,0.0,0.0,69,0.00,,,0.00,WSDL version 420,2013-01-29 03:27:00,
2013-01-28 22:29:00,46.1,36.6,29.00,North,360,0.0,0.0,70,0.00,,,0.00,WSDL version 420,2013-01-29 03:29:00,
2013-01-28 22:31:00,46.0,36.7,29.00,North,360,0.0,0.0,70,0.00,,,0.00,WSDL version 420,2013-01-29 03:31:00,
2013-01-28 22:33:00,46.0,36.8,29.00,North,360,0.0,0.0,70,0.00,,,0.00,WSDL version 420,2013-01-29 03:33:00,
2013-01-28 22:35:00,46.0,36.8,29.00,North,360,0.0,0.0,70,0.00,,,0.00,WSDL version 420,2013-01-29 03:35:00,
2013-01-28 22:41:00,45.7,36.5,29.00,North,360,0.0,0.0,70,0.00,,,0.00,WSDL version 420,2013-01-29 03:41:00,
2013-01-28 22:43:00,45.5,36.3,29.00,North,360,0.0,0.0,70,0.00,,,0.00,WSDL version 420,2013-01-29 03:43:00,
2013-01-28 22:47:00,45.3,36.1,29.00,North,360,0.0,0.0,70,0.00,,,0.00,WSDL version 420,2013-01-29 03:47:00,
2013-01-28 22:49:00,45.3,36.1,29.00,North,0,0.0,0.0,70,0.00,,,0.00,WSDL version 420,2013-01-29 03:49:00,
2013-01-28 22:51:00,45.3,36.1,29.00,North,360,0.0,0.0,70,0.00,,,0.00,WSDL version 420,2013-01-29 03:51:00,
2013-01-28 22:53:00,45.3,36.3,29.00,North,360,0.0,0.0,71,0.00,,,0.00,WSDL version 420,2013-01-29 03:53:00,
2013-01-28 22:55:00,45.3,36.4,29.00,North,360,0.0,0.0,71,0.00,,,0.00,WSDL version 420,2013-01-29 03:55:00,
2013-01-28 22:57:00,45.4,36.5,29.00,West,270,0.0,0.0,71,0.00,,,0.00,WSDL version 420,2013-01-29 03:57:00,
2013-01-28 22:59:00,45.5,36.6,29.00,SW,225,0.0,0.0,71,0.00,,,0.00,WSDL version 420,2013-01-29 03:59:00,
2013-01-28 23:01:00,45.5,36.7,29.00,NE,45,0.0,0.0,71,0.00,,,0.00,WSDL version 420,2013-01-29 04:01:00,
2013-01-28 23:03:00,45.5,36.6,29.00,WSW,248,0.0,0.0,71,0.00,,,0.00,WSDL version 420,2013-01-29 04:03:00,
2013-01-28 23:09:00,45.1,36.5,29.00,NNE,23,0.0,0.0,72,0.00,,,0.00,WSDL version 420,2013-01-29 04:09:00,
2013-01-28 23:13:00,45.1,36.7,29.00,NE,45,0.0,0.0,72,0.00,,,0.00,WSDL version 420,2013-01-29 04:13:00,
2013-01-28 23:15:00,45.1,36.6,29.00,NNE,23,0.0,0.0,72,0.00,,,0.00,WSDL version 420,2013-01-29 04:15:00,
2013-01-28 23:19:00,44.8,36.3,29.00,ENE,68,0.0,0.0,72,0.00,,,0.00,WSDL version 420,2013-01-29 04:19:00,
2013-01-28 23:21:00,44.7,36.2,29.00,NE,45,0.0,0.0,72,0.00,,,0.00,WSDL version 420,2013-01-29 04:21:00,
2013-01-28 23:25:00,44.6,36.1,29.00,NNE,28,0.0,0.0,72,0.00,,,0.00,WSDL version 420,2013-01-29 04:25:00,
2013-01-28 23:27:00,44.6,36.1,29.00,North,360,0.0,0.0,72,0.00,,,0.00,WSDL version 420,2013-01-29 04:27:00,
2013-01-28 23:31:00,44.6,36.1,29.00,NNE,23,0.0,0.0,72,0.00,,,0.00,WSDL version 420,2013-01-29 04:31:00,
2013-01-28 23:33:00,44.5,36.2,29.00,East,86,0.0,0.0,73,0.00,,,0.00,WSDL version 420,2013-01-29 04:33:00,
2013-01-28 23:35:00,44.4,36.3,29.00,NNE,30,0.0,0.0,73,0.00,,,0.00,WSDL version 420,2013-01-29 04:35:00,
2013-01-28 23:39:00,44.2,36.0,29.00,NNE,23,0.0,0.0,72,0.00,,,0.00,WSDL version 420,2013-01-29 04:39:00,
2013-01-28 23:41:00,44.1,35.9,29.00,NNE,23,0.0,0.0,73,0.00,,,0.00,WSDL version 420,2013-01-29 04:41:00,
2013-01-28 23:43:00,44.1,35.9,29.00,NNE,23,0.0,0.0,73,0.00,,,0.00,WSDL version 420,2013-01-29 04:43:00,
2013-01-28 23:45:00,44.1,36.0,29.00,NNE,23,0.0,0.0,73,0.00,,,0.00,WSDL version 420,2013-01-29 04:45:00,
2013-01-28 23:47:00,44.0,35.9,29.00,NNE,23,0.0,0.0,73,0.00,,,0.00,WSDL version 420,2013-01-29 04:47:00,
2013-01-28 23:49:00,44.0,35.9,29.00,NNE,23,0.0,0.0,73,0.00,,,0.00,WSDL version 420,2013-01-29 04:49:00,
2013-01-28 23:53:00,43.8,35.7,29.00,ENE,68,0.0,0.0,73,0.00,,,0.00,WSDL version 420,2013-01-29 04:53:00,
2013-01-28 23:55:00,43.7,35.7,28.97,South,180,0.0,0.0,73,0.00,,,0.00,WSDL version 420,2013-01-29 04:55:00,
2013-01-28 23:59:00,43.7,35.7,28.97,WNW,300,0.0,0.0,74,0.00,,,0.00,WSDL version 420,2013-01-29 04:59:00,